sensor_id;sensor_type;location;lat;lon;timestamp;temperature;humidity
22450;DHT22;11392;57.390;-2.468;2022-08-24T00:01:05;16.40;99.90
22450;DHT22;11392;57.390;-2.468;2022-08-24T00:03:33;16.30;99.90
22450;DHT22;11392;57.390;-2.468;2022-08-24T00:06:01;16.30;99.90
22450;DHT22;11392;57.390;-2.468;2022-08-24T00:08:28;16.30;99.90
22450;DHT22;11392;57.390;-2.468;2022-08-24T00:10:55;16.30;99.90
22450;DHT22;11392;57.390;-2.468;2022-08-24T00:13:22;16.40;99.90
22450;DHT22;11392;57.390;-2.468;2022-08-24T00:15:54;16.30;99.90
22450;DHT22;11392;57.390;-2.468;2022-08-24T00:18:22;16.30;99.90
22450;DHT22;11392;57.390;-2.468;2022-08-24T00:20:49;16.30;99.90
22450;DHT22;11392;57.390;-2.468;2022-08-24T00:23:17;16.20;99.90
22450;DHT22;11392;57.390;-2.468;2022-08-24T00:25:44;16.30;99.90
22450;DHT22;11392;57.390;-2.468;2022-08-24T00:28:11;16.20;99.90
22450;DHT22;11392;57.390;-2.468;2022-08-24T00:30:38;16.20;99.90
22450;DHT22;11392;57.390;-2.468;2022-08-24T00:33:06;16.20;99.90
22450;DHT22;11392;57.390;-2.468;2022-08-24T00:35:33;16.20;99.90
22450;DHT22;11392;57.390;-2.468;2022-08-24T00:38:01;16.20;99.90
22450;DHT22;11392;57.390;-2.468;2022-08-24T00:40:32;16.20;99.90
22450;DHT22;11392;57.390;-2.468;2022-08-24T00:43:03;16.20;99.90
22450;DHT22;11392;57.390;-2.468;2022-08-24T00:45:34;16.30;99.90
22450;DHT22;11392;57.390;-2.468;2022-08-24T00:48:07;16.20;99.90
22450;DHT22;11392;57.390;-2.468;2022-08-24T00:51:04;16.30;99.90
22450;DHT22;11392;57.390;-2.468;2022-08-24T00:53:41;16.30;99.90
22450;DHT22;11392;57.390;-2.468;2022-08-24T00:56:13;16.20;99.90
22450;DHT22;11392;57.390;-2.468;2022-08-24T00:58:48;16.30;99.90
22450;DHT22;11392;57.390;-2.468;2022-08-24T01:01:24;16.30;99.90
22450;DHT22;11392;57.390;-2.468;2022-08-24T01:03:52;16.30;99.90
22450;DHT22;11392;57.390;-2.468;2022-08-24T01:06:22;16.30;99.90
22450;DHT22;11392;57.390;-2.468;2022-08-24T01:08:49;16.30;99.90
22450;DHT22;11392;57.390;-2.468;2022-08-24T01:11:24;16.20;99.90
22450;DHT22;11392;57.390;-2.468;2022-08-24T01:13:52;16.20;99.90
22450;DHT22;11392;57.390;-2.468;2022-08-24T01:16:21;16.20;99.90
22450;DHT22;11392;57.390;-2.468;2022-08-24T01:24:38;16.20;99.90
22450;DHT22;11392;57.390;-2.468;2022-08-24T01:27:08;16.20;99.90
22450;DHT22;11392;57.390;-2.468;2022-08-24T01:29:36;16.20;99.90
22450;DHT22;11392;57.390;-2.468;2022-08-24T01:32:04;16.10;99.90
22450;DHT22;11392;57.390;-2.468;2022-08-24T01:34:32;16.10;99.90
22450;DHT22;11392;57.390;-2.468;2022-08-24T01:37:00;16.20;99.90
22450;DHT22;11392;57.390;-2.468;2022-08-24T01:39:38;16.10;99.90
22450;DHT22;11392;57.390;-2.468;2022-08-24T01:42:06;16.10;99.90
22450;DHT22;11392;57.390;-2.468;2022-08-24T01:44:35;16.10;99.90
22450;DHT22;11392;57.390;-2.468;2022-08-24T01:47:04;16.10;99.90
22450;DHT22;11392;57.390;-2.468;2022-08-24T01:49:36;16.10;99.90
22450;DHT22;11392;57.390;-2.468;2022-08-24T01:52:05;16.10;99.90
22450;DHT22;11392;57.390;-2.468;2022-08-24T01:54:33;16.00;99.90
22450;DHT22;11392;57.390;-2.468;2022-08-24T01:57:01;15.90;99.90
22450;DHT22;11392;57.390;-2.468;2022-08-24T01:59:29;15.90;99.90
22450;DHT22;11392;57.390;-2.468;2022-08-24T02:02:05;15.90;99.90
22450;DHT22;11392;57.390;-2.468;2022-08-24T02:04:34;15.90;99.90
22450;DHT22;11392;57.390;-2.468;2022-08-24T02:07:01;15.90;99.90
22450;DHT22;11392;57.390;-2.468;2022-08-24T02:09:30;15.90;99.90
22450;DHT22;11392;57.390;-2.468;2022-08-24T02:11:58;16.00;99.90
22450;DHT22;11392;57.390;-2.468;2022-08-24T02:14:25;15.90;99.90
22450;DHT22;11392;57.390;-2.468;2022-08-24T02:16:58;16.00;99.90
22450;DHT22;11392;57.390;-2.468;2022-08-24T02:19:25;15.90;99.90
22450;DHT22;11392;57.390;-2.468;2022-08-24T02:21:52;16.00;99.90
22450;DHT22;11392;57.390;-2.468;2022-08-24T02:24:20;16.00;99.90
22450;DHT22;11392;57.390;-2.468;2022-08-24T02:26:47;16.00;99.90
22450;DHT22;11392;57.390;-2.468;2022-08-24T02:29:15;16.00;99.90
22450;DHT22;11392;57.390;-2.468;2022-08-24T02:31:43;15.90;99.90
22450;DHT22;11392;57.390;-2.468;2022-08-24T02:34:10;15.90;99.90
22450;DHT22;11392;57.390;-2.468;2022-08-24T02:36:38;15.90;99.90
22450;DHT22;11392;57.390;-2.468;2022-08-24T02:39:06;15.90;99.90
22450;DHT22;11392;57.390;-2.468;2022-08-24T02:41:34;15.80;99.90
22450;DHT22;11392;57.390;-2.468;2022-08-24T02:44:01;15.80;99.90
22450;DHT22;11392;57.390;-2.468;2022-08-24T02:46:29;15.70;99.90
22450;DHT22;11392;57.390;-2.468;2022-08-24T02:48:57;15.70;99.90
22450;DHT22;11392;57.390;-2.468;2022-08-24T02:51:38;15.70;99.90
22450;DHT22;11392;57.390;-2.468;2022-08-24T02:54:12;15.70;99.90
22450;DHT22;11392;57.390;-2.468;2022-08-24T02:56:44;15.70;99.90
22450;DHT22;11392;57.390;-2.468;2022-08-24T02:59:11;15.60;99.90
22450;DHT22;11392;57.390;-2.468;2022-08-24T03:01:38;15.60;99.90
22450;DHT22;11392;57.390;-2.468;2022-08-24T03:04:06;15.60;99.90
22450;DHT22;11392;57.390;-2.468;2022-08-24T03:06:33;15.60;99.90
22450;DHT22;11392;57.390;-2.468;2022-08-24T03:09:00;15.60;99.90
22450;DHT22;11392;57.390;-2.468;2022-08-24T03:11:27;15.60;99.90
22450;DHT22;11392;57.390;-2.468;2022-08-24T03:13:55;15.60;99.90
22450;DHT22;11392;57.390;-2.468;2022-08-24T03:16:26;15.50;99.90
22450;DHT22;11392;57.390;-2.468;2022-08-24T03:18:54;15.50;99.90
22450;DHT22;11392;57.390;-2.468;2022-08-24T03:21:21;15.50;99.90
22450;DHT22;11392;57.390;-2.468;2022-08-24T03:23:48;15.50;99.90
22450;DHT22;11392;57.390;-2.468;2022-08-24T03:26:15;15.50;99.90
22450;DHT22;11392;57.390;-2.468;2022-08-24T03:28:42;15.50;99.90
22450;DHT22;11392;57.390;-2.468;2022-08-24T03:31:10;15.50;99.90
22450;DHT22;11392;57.390;-2.468;2022-08-24T03:33:38;15.60;99.90
22450;DHT22;11392;57.390;-2.468;2022-08-24T03:36:05;15.60;99.90
22450;DHT22;11392;57.390;-2.468;2022-08-24T03:38:39;15.60;99.90
22450;DHT22;11392;57.390;-2.468;2022-08-24T03:41:06;15.60;99.90
22450;DHT22;11392;57.390;-2.468;2022-08-24T03:43:33;15.60;99.90
22450;DHT22;11392;57.390;-2.468;2022-08-24T03:46:20;15.60;99.90
22450;DHT22;11392;57.390;-2.468;2022-08-24T03:48:51;15.60;99.90
22450;DHT22;11392;57.390;-2.468;2022-08-24T03:51:24;15.60;99.90
22450;DHT22;11392;57.390;-2.468;2022-08-24T03:53:52;15.60;99.90
22450;DHT22;11392;57.390;-2.468;2022-08-24T03:56:19;15.70;99.90
22450;DHT22;11392;57.390;-2.468;2022-08-24T03:58:47;15.70;99.90
22450;DHT22;11392;57.390;-2.468;2022-08-24T04:01:15;15.70;99.90
22450;DHT22;11392;57.390;-2.468;2022-08-24T04:03:45;15.70;99.90
22450;DHT22;11392;57.390;-2.468;2022-08-24T04:06:13;15.70;99.90
22450;DHT22;11392;57.390;-2.468;2022-08-24T04:08:41;15.70;99.90
22450;DHT22;11392;57.390;-2.468;2022-08-24T04:11:14;15.70;99.90
22450;DHT22;11392;57.390;-2.468;2022-08-24T04:13:42;15.60;99.90
22450;DHT22;11392;57.390;-2.468;2022-08-24T04:16:12;15.60;99.90
22450;DHT22;11392;57.390;-2.468;2022-08-24T04:18:41;15.60;99.90
22450;DHT22;11392;57.390;-2.468;2022-08-24T04:21:29;15.60;99.90
22450;DHT22;11392;57.390;-2.468;2022-08-24T04:24:02;15.60;99.90
22450;DHT22;11392;57.390;-2.468;2022-08-24T04:26:30;15.60;99.90
22450;DHT22;11392;57.390;-2.468;2022-08-24T04:29:13;15.50;99.90
22450;DHT22;11392;57.390;-2.468;2022-08-24T04:31:42;15.50;99.90
22450;DHT22;11392;57.390;-2.468;2022-08-24T04:34:10;15.60;99.90
22450;DHT22;11392;57.390;-2.468;2022-08-24T04:36:39;15.60;99.90
22450;DHT22;11392;57.390;-2.468;2022-08-24T04:39:07;15.50;99.90
22450;DHT22;11392;57.390;-2.468;2022-08-24T04:41:34;15.50;99.90
22450;DHT22;11392;57.390;-2.468;2022-08-24T04:44:02;15.50;99.90
22450;DHT22;11392;57.390;-2.468;2022-08-24T04:46:29;15.60;99.90
22450;DHT22;11392;57.390;-2.468;2022-08-24T04:48:56;15.60;99.90
22450;DHT22;11392;57.390;-2.468;2022-08-24T04:51:23;15.60;99.90
22450;DHT22;11392;57.390;-2.468;2022-08-24T04:53:50;15.60;99.90
22450;DHT22;11392;57.390;-2.468;2022-08-24T04:56:22;15.50;99.90
22450;DHT22;11392;57.390;-2.468;2022-08-24T04:58:52;15.40;99.90
22450;DHT22;11392;57.390;-2.468;2022-08-24T05:01:22;15.40;99.90
22450;DHT22;11392;57.390;-2.468;2022-08-24T05:03:50;15.40;99.90
22450;DHT22;11392;57.390;-2.468;2022-08-24T05:06:19;15.40;99.90
22450;DHT22;11392;57.390;-2.468;2022-08-24T05:08:47;15.30;99.90
22450;DHT22;11392;57.390;-2.468;2022-08-24T05:11:15;15.30;99.90
22450;DHT22;11392;57.390;-2.468;2022-08-24T05:13:43;15.30;99.90
22450;DHT22;11392;57.390;-2.468;2022-08-24T05:16:13;15.30;99.90
22450;DHT22;11392;57.390;-2.468;2022-08-24T05:18:41;15.20;99.90
22450;DHT22;11392;57.390;-2.468;2022-08-24T05:21:15;15.20;99.90
22450;DHT22;11392;57.390;-2.468;2022-08-24T05:23:43;15.20;99.90
22450;DHT22;11392;57.390;-2.468;2022-08-24T05:26:22;15.10;99.90
22450;DHT22;11392;57.390;-2.468;2022-08-24T05:28:56;15.10;99.90
22450;DHT22;11392;57.390;-2.468;2022-08-24T05:31:25;15.10;99.90
22450;DHT22;11392;57.390;-2.468;2022-08-24T05:33:53;15.20;99.90
22450;DHT22;11392;57.390;-2.468;2022-08-24T05:36:22;15.20;99.90
22450;DHT22;11392;57.390;-2.468;2022-08-24T05:38:53;15.30;99.90
22450;DHT22;11392;57.390;-2.468;2022-08-24T05:41:20;15.30;99.90
22450;DHT22;11392;57.390;-2.468;2022-08-24T05:43:47;15.40;99.90
22450;DHT22;11392;57.390;-2.468;2022-08-24T05:46:15;15.40;99.90
22450;DHT22;11392;57.390;-2.468;2022-08-24T05:48:45;15.50;99.90
22450;DHT22;11392;57.390;-2.468;2022-08-24T05:51:19;15.50;99.90
22450;DHT22;11392;57.390;-2.468;2022-08-24T05:53:46;15.60;99.90
22450;DHT22;11392;57.390;-2.468;2022-08-24T05:56:16;15.60;99.90
22450;DHT22;11392;57.390;-2.468;2022-08-24T05:58:44;15.60;99.90
22450;DHT22;11392;57.390;-2.468;2022-08-24T06:01:22;15.70;99.90
22450;DHT22;11392;57.390;-2.468;2022-08-24T06:03:51;15.70;99.90
22450;DHT22;11392;57.390;-2.468;2022-08-24T06:06:20;15.70;99.90
22450;DHT22;11392;57.390;-2.468;2022-08-24T06:08:49;15.70;99.90
22450;DHT22;11392;57.390;-2.468;2022-08-24T06:11:43;15.70;99.90
22450;DHT22;11392;57.390;-2.468;2022-08-24T06:14:13;15.60;99.90
22450;DHT22;11392;57.390;-2.468;2022-08-24T06:16:43;15.60;99.90
22450;DHT22;11392;57.390;-2.468;2022-08-24T06:19:13;15.60;99.90
22450;DHT22;11392;57.390;-2.468;2022-08-24T06:21:40;15.60;99.90
22450;DHT22;11392;57.390;-2.468;2022-08-24T06:24:08;15.60;99.90
22450;DHT22;11392;57.390;-2.468;2022-08-24T06:26:35;15.60;99.90
22450;DHT22;11392;57.390;-2.468;2022-08-24T06:29:21;15.60;99.90
22450;DHT22;11392;57.390;-2.468;2022-08-24T06:31:48;15.60;99.90
22450;DHT22;11392;57.390;-2.468;2022-08-24T06:34:20;15.60;99.90
22450;DHT22;11392;57.390;-2.468;2022-08-24T06:36:47;15.60;99.90
22450;DHT22;11392;57.390;-2.468;2022-08-24T06:39:15;15.60;99.90
22450;DHT22;11392;57.390;-2.468;2022-08-24T06:41:42;15.60;99.90
22450;DHT22;11392;57.390;-2.468;2022-08-24T06:44:09;15.60;99.90
22450;DHT22;11392;57.390;-2.468;2022-08-24T06:46:38;15.60;99.90
22450;DHT22;11392;57.390;-2.468;2022-08-24T06:49:05;15.60;99.90
22450;DHT22;11392;57.390;-2.468;2022-08-24T06:51:33;15.70;99.90
22450;DHT22;11392;57.390;-2.468;2022-08-24T06:54:00;15.70;99.90
22450;DHT22;11392;57.390;-2.468;2022-08-24T06:56:27;15.70;99.90
22450;DHT22;11392;57.390;-2.468;2022-08-24T06:58:55;15.60;99.90
22450;DHT22;11392;57.390;-2.468;2022-08-24T07:01:25;15.60;99.90
22450;DHT22;11392;57.390;-2.468;2022-08-24T07:03:52;15.50;99.90
22450;DHT22;11392;57.390;-2.468;2022-08-24T07:06:20;15.40;99.90
22450;DHT22;11392;57.390;-2.468;2022-08-24T07:08:48;15.40;99.90
22450;DHT22;11392;57.390;-2.468;2022-08-24T07:11:17;15.40;99.90
22450;DHT22;11392;57.390;-2.468;2022-08-24T07:13:45;15.40;99.90
22450;DHT22;11392;57.390;-2.468;2022-08-24T07:16:17;15.40;99.90
22450;DHT22;11392;57.390;-2.468;2022-08-24T07:18:45;15.40;99.90
22450;DHT22;11392;57.390;-2.468;2022-08-24T07:21:17;15.40;99.90
22450;DHT22;11392;57.390;-2.468;2022-08-24T07:23:47;15.40;99.90
22450;DHT22;11392;57.390;-2.468;2022-08-24T07:26:19;15.30;99.90
22450;DHT22;11392;57.390;-2.468;2022-08-24T07:28:54;15.30;99.90
22450;DHT22;11392;57.390;-2.468;2022-08-24T07:31:25;15.30;99.90
22450;DHT22;11392;57.390;-2.468;2022-08-24T07:33:52;15.30;99.90
22450;DHT22;11392;57.390;-2.468;2022-08-24T07:36:19;15.30;99.90
22450;DHT22;11392;57.390;-2.468;2022-08-24T07:38:49;15.30;99.90
22450;DHT22;11392;57.390;-2.468;2022-08-24T07:41:19;15.30;99.90
22450;DHT22;11392;57.390;-2.468;2022-08-24T07:44:07;15.20;99.90
22450;DHT22;11392;57.390;-2.468;2022-08-24T07:46:34;15.20;99.90
22450;DHT22;11392;57.390;-2.468;2022-08-24T07:49:01;15.20;99.90
22450;DHT22;11392;57.390;-2.468;2022-08-24T07:51:46;15.20;99.90
22450;DHT22;11392;57.390;-2.468;2022-08-24T07:54:14;15.20;99.90
22450;DHT22;11392;57.390;-2.468;2022-08-24T07:56:42;15.20;99.90
22450;DHT22;11392;57.390;-2.468;2022-08-24T07:59:09;15.20;99.90
22450;DHT22;11392;57.390;-2.468;2022-08-24T08:01:39;15.30;99.90
22450;DHT22;11392;57.390;-2.468;2022-08-24T08:04:08;15.30;99.90
22450;DHT22;11392;57.390;-2.468;2022-08-24T08:06:35;15.40;99.90
22450;DHT22;11392;57.390;-2.468;2022-08-24T08:09:04;15.30;99.90
22450;DHT22;11392;57.390;-2.468;2022-08-24T08:11:31;15.30;99.90
22450;DHT22;11392;57.390;-2.468;2022-08-24T08:13:58;15.30;99.90
22450;DHT22;11392;57.390;-2.468;2022-08-24T08:16:26;15.30;99.90
22450;DHT22;11392;57.390;-2.468;2022-08-24T08:18:53;15.30;99.90
22450;DHT22;11392;57.390;-2.468;2022-08-24T08:21:55;15.40;99.90
22450;DHT22;11392;57.390;-2.468;2022-08-24T08:24:41;15.40;99.90
22450;DHT22;11392;57.390;-2.468;2022-08-24T08:27:12;15.40;99.90
22450;DHT22;11392;57.390;-2.468;2022-08-24T08:29:41;15.40;99.90
22450;DHT22;11392;57.390;-2.468;2022-08-24T08:32:09;15.40;99.90
22450;DHT22;11392;57.390;-2.468;2022-08-24T08:34:37;15.40;99.90
22450;DHT22;11392;57.390;-2.468;2022-08-24T08:37:05;15.30;99.90
22450;DHT22;11392;57.390;-2.468;2022-08-24T08:39:32;15.30;99.90
22450;DHT22;11392;57.390;-2.468;2022-08-24T08:45:29;15.30;99.90
22450;DHT22;11392;57.390;-2.468;2022-08-24T08:50:50;15.30;99.90
22450;DHT22;11392;57.390;-2.468;2022-08-24T08:59:14;15.40;99.90
22450;DHT22;11392;57.390;-2.468;2022-08-24T09:01:56;15.50;99.90
22450;DHT22;11392;57.390;-2.468;2022-08-24T09:07:19;15.50;99.90
22450;DHT22;11392;57.390;-2.468;2022-08-24T09:23:34;15.80;99.90
22450;DHT22;11392;57.390;-2.468;2022-08-24T09:37:10;16.00;99.90
22450;DHT22;11392;57.390;-2.468;2022-08-24T10:19:44;16.50;99.90
22450;DHT22;11392;57.390;-2.468;2022-08-24T10:24:59;16.60;99.90
22450;DHT22;11392;57.390;-2.468;2022-08-24T10:27:45;16.70;99.90
22450;DHT22;11392;57.390;-2.468;2022-08-24T10:36:01;17.00;99.90
22450;DHT22;11392;57.390;-2.468;2022-08-24T10:53:50;17.30;99.90
22450;DHT22;11392;57.390;-2.468;2022-08-24T10:56:35;17.20;99.90
22450;DHT22;11392;57.390;-2.468;2022-08-24T11:02:11;16.90;99.90
22450;DHT22;11392;57.390;-2.468;2022-08-24T11:05:02;16.90;99.90
22450;DHT22;11392;57.390;-2.468;2022-08-24T11:07:31;16.90;99.90
22450;DHT22;11392;57.390;-2.468;2022-08-24T11:10:01;16.80;99.90
22450;DHT22;11392;57.390;-2.468;2022-08-24T11:12:38;16.70;99.90
22450;DHT22;11392;57.390;-2.468;2022-08-24T11:18:04;16.70;99.90
22450;DHT22;11392;57.390;-2.468;2022-08-24T11:20:34;16.80;99.90
22450;DHT22;11392;57.390;-2.468;2022-08-24T11:23:06;16.80;99.90
22450;DHT22;11392;57.390;-2.468;2022-08-24T11:25:37;16.70;99.90
22450;DHT22;11392;57.390;-2.468;2022-08-24T11:28:22;16.80;99.90
22450;DHT22;11392;57.390;-2.468;2022-08-24T11:30:51;16.80;99.90
22450;DHT22;11392;57.390;-2.468;2022-08-24T11:33:57;16.80;99.90
22450;DHT22;11392;57.390;-2.468;2022-08-24T11:36:28;16.70;99.90
22450;DHT22;11392;57.390;-2.468;2022-08-24T11:39:14;16.70;99.90
22450;DHT22;11392;57.390;-2.468;2022-08-24T11:42:17;16.70;99.90
22450;DHT22;11392;57.390;-2.468;2022-08-24T12:00:54;17.10;99.90
22450;DHT22;11392;57.390;-2.468;2022-08-24T12:08:52;17.40;99.90
22450;DHT22;11392;57.390;-2.468;2022-08-24T12:14:25;17.90;99.90
22450;DHT22;11392;57.390;-2.468;2022-08-24T12:17:19;18.20;99.90
22450;DHT22;11392;57.390;-2.468;2022-08-24T12:19:50;18.30;99.90
22450;DHT22;11392;57.390;-2.468;2022-08-24T12:22:19;18.70;99.90
22450;DHT22;11392;57.390;-2.468;2022-08-24T12:24:53;19.10;99.90
22450;DHT22;11392;57.390;-2.468;2022-08-24T12:27:26;19.40;99.90
22450;DHT22;11392;57.390;-2.468;2022-08-24T12:29:58;19.50;99.90
22450;DHT22;11392;57.390;-2.468;2022-08-24T12:32:35;19.50;99.90
22450;DHT22;11392;57.390;-2.468;2022-08-24T12:35:25;19.30;99.90
22450;DHT22;11392;57.390;-2.468;2022-08-24T12:38:25;19.20;99.90
22450;DHT22;11392;57.390;-2.468;2022-08-24T12:41:18;19.20;99.90
22450;DHT22;11392;57.390;-2.468;2022-08-24T12:43:56;19.50;99.90
22450;DHT22;11392;57.390;-2.468;2022-08-24T12:46:25;19.50;99.90
22450;DHT22;11392;57.390;-2.468;2022-08-24T12:48:58;19.60;99.90
22450;DHT22;11392;57.390;-2.468;2022-08-24T13:23:20;21.30;99.90
22450;DHT22;11392;57.390;-2.468;2022-08-24T13:33:55;21.40;99.90
22450;DHT22;11392;57.390;-2.468;2022-08-24T14:00:45;20.50;99.90
22450;DHT22;11392;57.390;-2.468;2022-08-24T14:08:44;20.70;99.90
22450;DHT22;11392;57.390;-2.468;2022-08-24T14:14:10;21.00;99.90
22450;DHT22;11392;57.390;-2.468;2022-08-24T14:17:06;20.90;99.90
22450;DHT22;11392;57.390;-2.468;2022-08-24T14:25:41;20.80;99.90
22450;DHT22;11392;57.390;-2.468;2022-08-24T14:36:47;20.40;99.90
22450;DHT22;11392;57.390;-2.468;2022-08-24T14:39:38;20.40;99.90
22450;DHT22;11392;57.390;-2.468;2022-08-24T14:42:16;20.40;99.90
22450;DHT22;11392;57.390;-2.468;2022-08-24T14:50:48;20.60;99.90
22450;DHT22;11392;57.390;-2.468;2022-08-24T15:01:34;22.00;99.90
22450;DHT22;11392;57.390;-2.468;2022-08-24T15:04:29;22.30;99.90
22450;DHT22;11392;57.390;-2.468;2022-08-24T15:07:26;22.30;99.90
22450;DHT22;11392;57.390;-2.468;2022-08-24T15:09:54;22.20;99.90
22450;DHT22;11392;57.390;-2.468;2022-08-24T15:12:32;21.90;99.90
22450;DHT22;11392;57.390;-2.468;2022-08-24T15:18:12;22.20;99.90
22450;DHT22;11392;57.390;-2.468;2022-08-24T15:28:51;22.80;99.90
22450;DHT22;11392;57.390;-2.468;2022-08-24T15:31:27;22.60;99.90
22450;DHT22;11392;57.390;-2.468;2022-08-24T15:34:01;22.60;99.90
22450;DHT22;11392;57.390;-2.468;2022-08-24T15:36:31;22.40;99.90
22450;DHT22;11392;57.390;-2.468;2022-08-24T15:39:02;22.40;99.90
22450;DHT22;11392;57.390;-2.468;2022-08-24T15:41:33;22.60;99.90
22450;DHT22;11392;57.390;-2.468;2022-08-24T15:44:09;22.50;99.90
22450;DHT22;11392;57.390;-2.468;2022-08-24T15:46:46;22.50;99.90
22450;DHT22;11392;57.390;-2.468;2022-08-24T15:49:30;22.70;99.90
22450;DHT22;11392;57.390;-2.468;2022-08-24T15:52:06;22.80;99.90
22450;DHT22;11392;57.390;-2.468;2022-08-24T15:54:37;22.90;99.90
22450;DHT22;11392;57.390;-2.468;2022-08-24T15:57:38;22.80;99.90
22450;DHT22;11392;57.390;-2.468;2022-08-24T16:00:19;22.70;99.90
22450;DHT22;11392;57.390;-2.468;2022-08-24T16:03:47;22.60;99.90
22450;DHT22;11392;57.390;-2.468;2022-08-24T16:11:48;22.20;99.90
22450;DHT22;11392;57.390;-2.468;2022-08-24T16:17:32;22.20;99.90
22450;DHT22;11392;57.390;-2.468;2022-08-24T16:20:09;22.10;99.90
22450;DHT22;11392;57.390;-2.468;2022-08-24T16:22:39;22.00;99.90
22450;DHT22;11392;57.390;-2.468;2022-08-24T16:25:29;21.80;99.90
22450;DHT22;11392;57.390;-2.468;2022-08-24T16:30:54;21.60;99.90
22450;DHT22;11392;57.390;-2.468;2022-08-24T16:36:07;21.10;99.90
22450;DHT22;11392;57.390;-2.468;2022-08-24T16:38:37;20.90;99.90
22450;DHT22;11392;57.390;-2.468;2022-08-24T16:41:09;20.80;99.90
22450;DHT22;11392;57.390;-2.468;2022-08-24T16:43:39;20.60;99.90
22450;DHT22;11392;57.390;-2.468;2022-08-24T16:46:08;20.50;99.90
22450;DHT22;11392;57.390;-2.468;2022-08-24T16:48:35;20.30;99.90
22450;DHT22;11392;57.390;-2.468;2022-08-24T16:51:03;20.10;99.90
22450;DHT22;11392;57.390;-2.468;2022-08-24T16:53:30;20.00;99.90
22450;DHT22;11392;57.390;-2.468;2022-08-24T16:55:57;19.90;99.90
22450;DHT22;11392;57.390;-2.468;2022-08-24T16:58:28;19.70;99.90
22450;DHT22;11392;57.390;-2.468;2022-08-24T17:00:56;19.60;99.90
22450;DHT22;11392;57.390;-2.468;2022-08-24T17:03:24;19.50;99.90
22450;DHT22;11392;57.390;-2.468;2022-08-24T17:05:51;19.40;99.90
22450;DHT22;11392;57.390;-2.468;2022-08-24T17:08:18;19.30;99.90
22450;DHT22;11392;57.390;-2.468;2022-08-24T17:10:45;19.30;99.90
22450;DHT22;11392;57.390;-2.468;2022-08-24T17:13:12;19.30;99.90
22450;DHT22;11392;57.390;-2.468;2022-08-24T17:16:00;19.30;99.90
22450;DHT22;11392;57.390;-2.468;2022-08-24T17:18:27;19.30;99.90
22450;DHT22;11392;57.390;-2.468;2022-08-24T17:20:57;19.30;99.90
22450;DHT22;11392;57.390;-2.468;2022-08-24T17:23:26;19.20;99.90
22450;DHT22;11392;57.390;-2.468;2022-08-24T17:25:53;19.10;99.90
22450;DHT22;11392;57.390;-2.468;2022-08-24T17:28:20;19.00;99.90
22450;DHT22;11392;57.390;-2.468;2022-08-24T17:30:47;18.90;99.90
22450;DHT22;11392;57.390;-2.468;2022-08-24T17:33:17;18.80;99.90
22450;DHT22;11392;57.390;-2.468;2022-08-24T17:35:44;18.80;99.90
22450;DHT22;11392;57.390;-2.468;2022-08-24T17:38:11;18.80;99.90
22450;DHT22;11392;57.390;-2.468;2022-08-24T17:40:38;18.80;99.90
22450;DHT22;11392;57.390;-2.468;2022-08-24T17:43:05;18.80;99.90
22450;DHT22;11392;57.390;-2.468;2022-08-24T17:45:33;18.70;99.90
22450;DHT22;11392;57.390;-2.468;2022-08-24T17:48:01;18.70;99.90
22450;DHT22;11392;57.390;-2.468;2022-08-24T17:50:28;18.60;99.90
22450;DHT22;11392;57.390;-2.468;2022-08-24T17:52:55;18.70;99.90
22450;DHT22;11392;57.390;-2.468;2022-08-24T17:55:26;18.70;99.90
22450;DHT22;11392;57.390;-2.468;2022-08-24T17:57:54;18.70;99.90
22450;DHT22;11392;57.390;-2.468;2022-08-24T18:00:20;18.70;99.90
22450;DHT22;11392;57.390;-2.468;2022-08-24T18:02:47;18.70;99.90
22450;DHT22;11392;57.390;-2.468;2022-08-24T18:05:15;18.70;99.90
22450;DHT22;11392;57.390;-2.468;2022-08-24T18:07:46;18.70;99.90
22450;DHT22;11392;57.390;-2.468;2022-08-24T18:10:22;18.70;99.90
22450;DHT22;11392;57.390;-2.468;2022-08-24T18:12:50;18.60;99.90
22450;DHT22;11392;57.390;-2.468;2022-08-24T18:15:17;18.70;99.90
22450;DHT22;11392;57.390;-2.468;2022-08-24T18:17:47;18.60;99.90
22450;DHT22;11392;57.390;-2.468;2022-08-24T18:20:18;18.60;99.90
22450;DHT22;11392;57.390;-2.468;2022-08-24T18:22:46;18.60;99.90
22450;DHT22;11392;57.390;-2.468;2022-08-24T18:25:20;18.50;99.90
22450;DHT22;11392;57.390;-2.468;2022-08-24T18:27:51;18.50;99.90
22450;DHT22;11392;57.390;-2.468;2022-08-24T18:30:27;18.50;99.90
22450;DHT22;11392;57.390;-2.468;2022-08-24T18:32:57;18.40;99.90
22450;DHT22;11392;57.390;-2.468;2022-08-24T18:35:25;18.40;99.90
22450;DHT22;11392;57.390;-2.468;2022-08-24T18:37:52;18.40;99.90
22450;DHT22;11392;57.390;-2.468;2022-08-24T18:40:19;18.30;99.90
22450;DHT22;11392;57.390;-2.468;2022-08-24T18:42:47;18.30;99.90
22450;DHT22;11392;57.390;-2.468;2022-08-24T18:45:16;18.20;99.90
22450;DHT22;11392;57.390;-2.468;2022-08-24T18:47:43;18.10;99.90
22450;DHT22;11392;57.390;-2.468;2022-08-24T18:50:19;18.10;99.90
22450;DHT22;11392;57.390;-2.468;2022-08-24T18:52:46;18.00;99.90
22450;DHT22;11392;57.390;-2.468;2022-08-24T18:55:14;17.90;99.90
22450;DHT22;11392;57.390;-2.468;2022-08-24T18:57:42;17.80;99.90
22450;DHT22;11392;57.390;-2.468;2022-08-24T19:00:09;17.70;99.90
22450;DHT22;11392;57.390;-2.468;2022-08-24T19:02:36;17.60;99.90
22450;DHT22;11392;57.390;-2.468;2022-08-24T19:05:13;17.60;99.90
22450;DHT22;11392;57.390;-2.468;2022-08-24T19:07:43;17.40;99.90
22450;DHT22;11392;57.390;-2.468;2022-08-24T19:10:13;17.40;99.90
22450;DHT22;11392;57.390;-2.468;2022-08-24T19:12:43;17.30;99.90
22450;DHT22;11392;57.390;-2.468;2022-08-24T19:15:14;17.30;99.90
22450;DHT22;11392;57.390;-2.468;2022-08-24T19:18:02;17.10;99.90
22450;DHT22;11392;57.390;-2.468;2022-08-24T19:20:32;16.90;99.90
22450;DHT22;11392;57.390;-2.468;2022-08-24T19:23:05;16.80;99.90
22450;DHT22;11392;57.390;-2.468;2022-08-24T19:25:34;16.70;99.90
22450;DHT22;11392;57.390;-2.468;2022-08-24T19:28:02;16.60;99.90
22450;DHT22;11392;57.390;-2.468;2022-08-24T19:30:30;16.50;99.90
22450;DHT22;11392;57.390;-2.468;2022-08-24T19:32:57;16.40;99.90
22450;DHT22;11392;57.390;-2.468;2022-08-24T19:35:26;16.20;99.90
22450;DHT22;11392;57.390;-2.468;2022-08-24T19:37:53;16.10;99.90
22450;DHT22;11392;57.390;-2.468;2022-08-24T19:40:20;16.00;99.90
22450;DHT22;11392;57.390;-2.468;2022-08-24T19:42:48;15.80;99.90
22450;DHT22;11392;57.390;-2.468;2022-08-24T19:45:19;15.80;99.90
22450;DHT22;11392;57.390;-2.468;2022-08-24T19:48:06;15.80;99.90
22450;DHT22;11392;57.390;-2.468;2022-08-24T19:50:33;15.80;99.90
22450;DHT22;11392;57.390;-2.468;2022-08-24T19:53:02;15.70;99.90
22450;DHT22;11392;57.390;-2.468;2022-08-24T19:55:31;15.70;99.90
22450;DHT22;11392;57.390;-2.468;2022-08-24T20:01:00;15.60;99.90
22450;DHT22;11392;57.390;-2.468;2022-08-24T20:03:28;15.50;99.90
22450;DHT22;11392;57.390;-2.468;2022-08-24T20:05:55;15.50;99.90
22450;DHT22;11392;57.390;-2.468;2022-08-24T20:08:22;15.50;99.90
22450;DHT22;11392;57.390;-2.468;2022-08-24T20:10:50;15.50;99.90